createdAt,value
2018-12-17T00:00:39.809Z,14.98
2018-12-17T00:03:14.434Z,14.94
2018-12-17T00:05:51.931Z,14.91
2018-12-17T00:08:31.976Z,14.86
2018-12-17T00:11:05.345Z,14.98
2018-12-17T00:13:44.322Z,14.93
2018-12-17T00:16:16.649Z,14.89
2018-12-17T00:18:48.309Z,14.81
2018-12-17T00:21:25.319Z,14.93
2018-12-17T00:24:00.440Z,14.88
2018-12-17T00:26:32.759Z,14.93
2018-12-17T00:29:09.642Z,14.84
2018-12-17T00:31:41.103Z,14.90
2018-12-17T00:34:12.605Z,14.84
2018-12-17T00:36:52.646Z,14.85
2018-12-17T00:39:27.756Z,14.90
2018-12-17T00:42:03.960Z,14.82
2018-12-17T00:44:39.185Z,14.84
2018-12-17T00:47:13.663Z,14.90
2018-12-17T00:49:48.571Z,14.69
2018-12-17T00:52:19.936Z,14.70
2018-12-17T00:54:51.597Z,14.77
2018-12-17T00:57:23.165Z,14.76
2018-12-17T01:00:03.669Z,14.67
2018-12-17T01:02:42.138Z,14.71
2018-12-17T01:05:13.586Z,14.67
2018-12-17T01:07:50.596Z,14.71
2018-12-17T01:10:34.173Z,14.79
2018-12-17T01:13:11.551Z,14.78
2018-12-17T01:15:53.383Z,14.75
2018-12-17T01:18:30.319Z,14.83
2018-12-17T01:21:08.958Z,14.80
2018-12-17T01:23:40.636Z,14.77
2018-12-17T01:26:16.055Z,14.72
2018-12-17T01:28:50.594Z,14.72
2018-12-17T01:31:22.196Z,14.68
2018-12-17T01:33:53.587Z,14.78
2018-12-17T01:36:26.465Z,14.72
2018-12-17T01:38:58.405Z,15.93
2018-12-17T01:41:31.258Z,16.22
2018-12-17T01:44:02.824Z,16.35
2018-12-17T01:46:34.564Z,16.39
2018-12-17T01:49:06.329Z,16.40
2018-12-17T01:51:37.867Z,16.43
2018-12-17T01:54:09.287Z,16.45
2018-12-17T01:56:41.468Z,16.51
2018-12-17T01:59:13.177Z,16.52
2018-12-17T02:01:44.789Z,16.49
2018-12-17T02:04:16.333Z,16.54
2018-12-17T02:06:48.103Z,16.57
2018-12-17T02:09:19.883Z,16.62
2018-12-17T02:11:51.265Z,16.68
2018-12-17T02:14:22.769Z,16.65
2018-12-17T02:16:55.125Z,16.69
2018-12-17T02:19:26.495Z,16.75
2018-12-17T02:21:58.007Z,16.75
2018-12-17T02:24:29.375Z,16.81
2018-12-17T02:27:00.970Z,16.79
2018-12-17T02:29:32.449Z,16.80
2018-12-17T02:32:04.301Z,16.81
2018-12-17T02:34:36.770Z,16.78
2018-12-17T02:37:08.450Z,16.84
2018-12-17T02:39:40.516Z,16.74
2018-12-17T02:42:12.475Z,16.75
2018-12-17T02:44:43.844Z,16.75
2018-12-17T02:47:15.431Z,16.81
2018-12-17T02:49:46.888Z,16.78
2018-12-17T02:52:18.347Z,16.78
2018-12-17T02:54:50.169Z,16.82
2018-12-17T02:57:22.481Z,16.82
2018-12-17T02:59:53.955Z,16.84
2018-12-17T03:02:25.718Z,16.58
2018-12-17T03:04:57.874Z,16.47
2018-12-17T03:07:29.626Z,16.40
2018-12-17T03:10:02.376Z,16.42
2018-12-17T03:12:35.926Z,16.35
2018-12-17T03:15:08.367Z,16.59
2018-12-17T03:17:40.245Z,16.70
2018-12-17T03:20:13.003Z,16.69
2018-12-17T03:22:45.015Z,16.71
2018-12-17T03:25:16.677Z,16.66
2018-12-17T03:27:48.067Z,16.63
2018-12-17T03:30:19.383Z,16.57
2018-12-17T03:32:50.925Z,16.65
2018-12-17T03:35:22.292Z,16.65
2018-12-17T03:37:54.919Z,16.67
2018-12-17T03:40:27.031Z,16.72
2018-12-17T03:42:58.512Z,16.63
2018-12-17T03:45:29.948Z,16.75
2018-12-17T03:48:01.378Z,16.88
2018-12-17T03:50:32.813Z,16.89
2018-12-17T03:53:04.199Z,16.84
2018-12-17T03:55:35.904Z,16.92
2018-12-17T03:58:07.413Z,17.00
2018-12-17T04:00:38.793Z,17.04
2018-12-17T04:03:10.527Z,17.06
2018-12-17T04:05:42.460Z,17.07
2018-12-17T04:08:14.352Z,17.03
2018-12-17T04:10:46.064Z,17.07
2018-12-17T04:13:18.715Z,17.18
2018-12-17T04:15:50.215Z,17.24
2018-12-17T04:18:22.510Z,17.06
2018-12-17T04:20:54.211Z,17.01
2018-12-17T04:23:25.983Z,17.11
2018-12-17T04:25:59.726Z,17.03
2018-12-17T04:28:31.630Z,17.12
2018-12-17T04:31:02.902Z,17.20
2018-12-17T04:33:35.091Z,17.09
2018-12-17T04:36:06.471Z,16.97
2018-12-17T04:38:38.020Z,16.89
2018-12-17T04:41:09.799Z,16.97
2018-12-17T04:43:41.251Z,17.05
2018-12-17T04:46:12.660Z,17.01
2018-12-17T04:48:44.284Z,17.09
2018-12-17T04:51:15.545Z,17.24
2018-12-17T04:53:46.927Z,17.23
2018-12-17T04:56:18.300Z,17.17
2018-12-17T04:58:49.877Z,17.24
2018-12-17T05:01:21.389Z,17.25
2018-12-17T05:03:52.967Z,17.24
2018-12-17T05:06:25.066Z,17.34
2018-12-17T05:08:56.886Z,17.41
2018-12-17T05:11:28.830Z,17.22
2018-12-17T05:14:01.121Z,17.03
2018-12-17T05:16:32.456Z,17.26
2018-12-17T05:19:04.073Z,17.26
2018-12-17T05:21:36.124Z,17.29
2018-12-17T05:24:07.731Z,17.24
2018-12-17T05:26:39.270Z,17.16
2018-12-17T05:29:11.475Z,17.30
2018-12-17T05:31:43.012Z,17.30
2018-12-17T05:34:15.377Z,17.34
2018-12-17T05:36:47.176Z,17.36
2018-12-17T05:39:19.095Z,17.13
2018-12-17T05:41:51.708Z,17.10
2018-12-17T05:44:23.975Z,17.24
2018-12-17T05:46:55.864Z,17.15
2018-12-17T05:49:28.009Z,17.35
2018-12-17T05:52:03.561Z,17.44
2018-12-17T05:54:39.278Z,17.39
2018-12-17T05:57:12.936Z,17.39
2018-12-17T05:59:48.762Z,17.53
2018-12-17T06:02:23.804Z,17.60
2018-12-17T06:05:00.361Z,17.55
2018-12-17T06:07:35.402Z,17.49
2018-12-17T06:10:09.625Z,17.53
2018-12-17T06:12:43.147Z,17.52
2018-12-17T06:15:17.999Z,17.60
2018-12-17T06:17:52.840Z,17.58
2018-12-17T06:20:27.905Z,17.58
2018-12-17T06:23:02.656Z,17.49
2018-12-17T06:25:34.538Z,17.40
2018-12-17T06:28:06.274Z,17.46
2018-12-17T06:30:39.519Z,17.50
2018-12-17T06:33:15.706Z,17.57
2018-12-17T06:35:48.508Z,17.51
2018-12-17T06:38:22.573Z,17.58
2018-12-17T06:41:00.570Z,17.49
2018-12-17T06:43:33.170Z,17.48
2018-12-17T06:46:15.047Z,17.53
2018-12-17T06:48:47.552Z,17.64
2018-12-17T06:51:23.135Z,17.63
2018-12-17T06:53:54.733Z,17.60
2018-12-17T06:56:26.801Z,17.60
2018-12-17T06:58:58.461Z,17.63
2018-12-17T07:01:33.944Z,17.68
2018-12-17T07:04:12.786Z,17.66
2018-12-17T07:06:44.477Z,17.58
2018-12-17T07:09:16.472Z,17.68
2018-12-17T07:11:48.556Z,17.82
2018-12-17T07:14:20.431Z,17.78
2018-12-17T07:16:52.034Z,17.77
2018-12-17T07:19:24.895Z,17.75
2018-12-17T07:21:56.566Z,17.80
2018-12-17T07:24:27.909Z,17.77
2018-12-17T07:26:59.505Z,17.78
2018-12-17T07:29:31.090Z,17.79
2018-12-17T07:32:04.792Z,17.87
2018-12-17T07:34:38.300Z,17.90
2018-12-17T07:37:10.753Z,17.99
2018-12-17T07:39:42.398Z,17.95
2018-12-17T07:42:16.115Z,17.95
2018-12-17T07:44:48.418Z,17.96
2018-12-17T07:47:20.048Z,17.92
2018-12-17T07:49:52.571Z,17.83
2018-12-17T07:52:25.427Z,17.84
2018-12-17T07:54:57.515Z,17.91
2018-12-17T07:57:30.795Z,18.03
2018-12-17T08:00:08.920Z,18.10
2018-12-17T08:02:41.008Z,18.13
2018-12-17T08:05:12.554Z,18.14
2018-12-17T08:07:44.785Z,18.17
2018-12-17T08:10:16.238Z,18.19
2018-12-17T08:12:52.616Z,18.21
2018-12-17T08:15:24.614Z,18.15
2018-12-17T08:18:34.782Z,18.21
2018-12-17T08:21:07.488Z,18.10
2018-12-17T08:23:40.100Z,18.12
2018-12-17T08:26:15.356Z,18.16
2018-12-17T08:28:53.756Z,18.20
2018-12-17T08:31:25.704Z,18.31
2018-12-17T08:34:02.429Z,18.54
2018-12-17T08:36:36.134Z,18.43
2018-12-17T08:39:09.121Z,18.32
2018-12-17T08:41:41.048Z,18.25
2018-12-17T08:44:13.459Z,18.21
2018-12-17T08:46:49.870Z,18.27
2018-12-17T08:49:21.935Z,18.29
2018-12-17T08:51:53.540Z,18.33
2018-12-17T08:54:25.701Z,18.33
2018-12-17T08:56:59.683Z,18.31
2018-12-17T08:59:33.564Z,18.35
2018-12-17T09:02:11.032Z,18.33
2018-12-17T09:07:40.395Z,18.44
2018-12-17T09:10:12.107Z,18.47
2018-12-17T09:12:43.800Z,18.42
2018-12-17T09:15:16.565Z,18.50
2018-12-17T09:17:48.581Z,18.49
2018-12-17T09:20:20.324Z,18.51
2018-12-17T09:22:53.430Z,18.61
2018-12-17T09:25:25.252Z,18.59
2018-12-17T09:27:57.630Z,18.51
2018-12-17T09:30:33.031Z,18.52
2018-12-17T09:33:07.886Z,18.51
2018-12-17T09:35:39.507Z,18.55
2018-12-17T09:38:11.069Z,18.61
2018-12-17T09:40:44.475Z,18.65
2018-12-17T09:43:16.284Z,18.61
2018-12-17T09:45:48.040Z,18.52
2018-12-17T09:48:20.119Z,18.55
2018-12-17T09:50:51.856Z,18.50
2018-12-17T09:53:24.680Z,18.48
2018-12-17T09:55:56.273Z,18.46
2018-12-17T09:58:29.227Z,18.46
2018-12-17T10:01:12.253Z,18.53
2018-12-17T10:03:48.274Z,18.53
2018-12-17T10:06:20.438Z,18.48
2018-12-17T10:08:54.895Z,18.45
2018-12-17T10:11:26.354Z,18.53
2018-12-17T10:13:58.241Z,18.51
2018-12-17T10:16:30.595Z,18.51
2018-12-17T10:19:02.741Z,18.49
2018-12-17T10:21:37.719Z,18.53
2018-12-17T10:24:09.865Z,18.55
2018-12-17T10:26:41.731Z,18.52
2018-12-17T10:29:14.474Z,18.55
2018-12-17T10:31:46.487Z,18.50
2018-12-17T10:34:18.153Z,18.43
2018-12-17T10:36:49.648Z,18.45
2018-12-17T10:39:23.215Z,18.42
2018-12-17T10:41:54.998Z,18.44
2018-12-17T10:44:28.659Z,18.48
2018-12-17T10:47:03.633Z,18.44
2018-12-17T10:49:35.927Z,18.47
2018-12-17T10:52:17.325Z,18.48
2018-12-17T10:54:49.225Z,18.46
2018-12-17T10:57:28.900Z,18.51
2018-12-17T11:00:00.850Z,18.50
2018-12-17T11:02:35.771Z,18.49
2018-12-17T11:05:14.107Z,18.51
2018-12-17T11:07:45.698Z,18.48
2018-12-17T11:10:18.061Z,18.50
2018-12-17T11:12:49.920Z,18.50
2018-12-17T11:15:21.404Z,18.48
2018-12-17T11:18:03.107Z,18.50
2018-12-17T11:20:35.424Z,18.47
2018-12-17T11:23:12.366Z,18.48
2018-12-17T11:25:44.576Z,18.46
2018-12-17T11:28:17.205Z,18.53
2018-12-17T11:30:52.062Z,18.53
2018-12-17T11:33:23.868Z,18.51
2018-12-17T11:35:56.331Z,18.57
2018-12-17T11:38:33.838Z,18.56
2018-12-17T11:41:14.996Z,18.57
2018-12-17T11:43:50.813Z,18.59
2018-12-17T11:46:22.797Z,18.57
2018-12-17T11:49:00.658Z,18.50
2018-12-17T11:51:33.227Z,18.54
2018-12-17T11:54:05.162Z,18.56
2018-12-17T11:58:45.743Z,18.59
2018-12-17T12:01:20.571Z,18.44
2018-12-17T12:03:52.449Z,18.39
2018-12-17T12:06:24.051Z,18.30
2018-12-17T12:08:55.846Z,18.32
2018-12-17T12:11:29.307Z,18.37
2018-12-17T12:14:01.849Z,18.34
2018-12-17T12:16:35.154Z,18.37
2018-12-17T12:19:07.121Z,18.48
2018-12-17T12:21:39.925Z,18.42
2018-12-17T12:24:11.479Z,18.42
2018-12-17T12:26:43.327Z,18.44
2018-12-17T12:29:16.453Z,18.43
2018-12-17T12:31:48.127Z,18.42
2018-12-17T12:34:19.741Z,18.41
2018-12-17T12:36:51.634Z,18.47
2018-12-17T12:39:23.485Z,18.51
2018-12-17T12:41:55.178Z,18.54
2018-12-17T12:44:26.750Z,18.46
2018-12-17T12:47:01.781Z,18.39
2018-12-17T12:49:33.353Z,18.47
2018-12-17T12:52:05.383Z,18.41
2018-12-17T12:54:37.230Z,18.40
2018-12-17T12:57:08.857Z,18.43
2018-12-17T12:59:41.539Z,18.39
2018-12-17T13:02:13.253Z,18.42
2018-12-17T13:04:44.604Z,18.48
2018-12-17T13:07:16.791Z,18.45
2018-12-17T13:09:48.715Z,18.37
2018-12-17T13:12:20.391Z,18.33
2018-12-17T13:14:51.662Z,18.31
2018-12-17T13:17:29.790Z,18.31
2018-12-17T13:20:01.268Z,18.34
2018-12-17T13:22:33.579Z,18.29
2018-12-17T13:25:06.577Z,18.25
2018-12-17T13:27:38.416Z,18.27
2018-12-17T13:30:11.309Z,18.23
2018-12-17T13:32:43.239Z,18.21
2018-12-17T13:35:14.947Z,18.20
2018-12-17T13:37:46.366Z,18.25
2018-12-17T13:40:17.624Z,18.21
2018-12-17T13:42:49.819Z,17.77
2018-12-17T13:45:28.116Z,17.53
2018-12-17T13:48:03.260Z,17.43
2018-12-17T13:50:39.567Z,17.45
2018-12-17T13:53:20.138Z,17.42
2018-12-17T13:55:55.400Z,17.42
2018-12-17T13:58:28.812Z,17.40
2018-12-17T14:01:03.998Z,17.37
2018-12-17T14:03:45.800Z,17.34
2018-12-17T14:06:18.380Z,17.32
2018-12-17T14:08:54.912Z,17.29
2018-12-17T14:11:31.768Z,17.21
2018-12-17T14:14:06.656Z,17.29
2018-12-17T14:16:45.798Z,17.23
2018-12-17T14:19:23.337Z,17.21
2018-12-17T14:22:03.618Z,17.11
2018-12-17T14:24:40.513Z,17.08
2018-12-17T14:27:12.000Z,17.12
2018-12-17T14:29:43.624Z,17.15
2018-12-17T14:32:15.030Z,17.19
2018-12-17T14:34:49.770Z,17.16
2018-12-17T14:37:21.721Z,17.11
2018-12-17T14:39:54.369Z,17.07
2018-12-17T14:42:27.954Z,17.04
2018-12-17T14:45:04.769Z,17.00
2018-12-17T14:47:40.183Z,17.06
2018-12-17T14:50:16.524Z,17.09
2018-12-17T14:52:53.103Z,17.02
2018-12-17T14:55:28.365Z,16.96
2018-12-17T14:58:00.026Z,16.99
2018-12-17T15:00:33.551Z,17.03
2018-12-17T15:03:11.937Z,17.05
2018-12-17T15:05:45.640Z,17.08
2018-12-17T15:08:17.021Z,17.04
2018-12-17T15:11:03.685Z,17.00
2018-12-17T15:13:37.191Z,16.96
2018-12-17T15:16:12.170Z,16.95
2018-12-17T15:21:51.324Z,17.02
2018-12-17T15:24:30.017Z,17.04
2018-12-17T15:27:03.927Z,17.05
2018-12-17T15:29:39.109Z,17.03
2018-12-17T15:32:15.616Z,17.05
2018-12-17T15:34:47.091Z,17.03
2018-12-17T15:37:19.119Z,17.07
2018-12-17T15:39:50.541Z,17.00
2018-12-17T15:42:22.198Z,16.91
2018-12-17T15:44:53.605Z,16.88
2018-12-17T15:47:26.187Z,16.93
2018-12-17T15:50:02.184Z,16.98
2018-12-17T15:52:39.188Z,16.98
2018-12-17T15:55:19.228Z,16.98
2018-12-17T15:58:00.929Z,16.93
2018-12-17T16:00:41.297Z,16.86
2018-12-17T16:03:12.826Z,16.89
2018-12-17T16:05:44.268Z,16.90
2018-12-17T16:08:15.624Z,16.86
2018-12-17T16:10:47.060Z,16.79
2018-12-17T16:13:22.606Z,16.83
2018-12-17T16:15:53.946Z,16.79
2018-12-17T16:18:25.407Z,16.73
2018-12-17T16:20:56.900Z,16.75
2018-12-17T16:23:28.391Z,16.73
2018-12-17T16:25:59.757Z,16.76
2018-12-17T16:28:31.861Z,16.77
2018-12-17T16:31:04.393Z,16.72
2018-12-17T16:33:35.950Z,16.71
2018-12-17T16:36:08.391Z,16.64
2018-12-17T16:38:43.756Z,16.60
2018-12-17T16:41:15.181Z,16.65
2018-12-17T16:43:47.647Z,16.65
2018-12-17T16:46:22.753Z,16.69
2018-12-17T16:48:54.258Z,16.67
2018-12-17T16:51:31.862Z,16.65
2018-12-17T16:54:06.799Z,16.69
2018-12-17T16:56:39.156Z,16.65
2018-12-17T16:59:20.602Z,16.61
2018-12-17T17:01:52.033Z,16.55
2018-12-17T17:04:27.274Z,16.56
2018-12-17T17:07:00.733Z,16.53
2018-12-17T17:09:32.289Z,16.54
2018-12-17T17:12:04.619Z,16.50
2018-12-17T17:14:37.303Z,16.45
2018-12-17T17:17:08.730Z,16.43
2018-12-17T17:19:50.668Z,16.40
2018-12-17T17:22:18.761Z,16.41
2018-12-17T17:24:55.157Z,16.37
2018-12-17T17:27:26.668Z,16.43
2018-12-17T17:29:58.633Z,16.48
2018-12-17T17:32:30.082Z,16.49
2018-12-17T17:35:01.833Z,16.52
2018-12-17T17:37:37.532Z,16.49
2018-12-17T17:40:10.229Z,16.47
2018-12-17T17:42:41.619Z,16.46
2018-12-17T17:45:13.100Z,16.50
2018-12-17T17:47:44.609Z,16.52
2018-12-17T17:50:19.682Z,16.52
2018-12-17T17:52:52.115Z,16.49
2018-12-17T17:55:26.850Z,16.47
2018-12-17T17:57:58.395Z,16.46
2018-12-17T18:00:36.690Z,16.42
2018-12-17T18:03:11.815Z,16.41
2018-12-17T18:05:58.024Z,16.35
2018-12-17T18:08:29.257Z,16.37
2018-12-17T18:11:00.733Z,16.35
2018-12-17T18:13:41.420Z,16.31
2018-12-17T18:16:16.552Z,16.31
2018-12-17T18:18:53.695Z,16.30
2018-12-17T18:21:25.227Z,16.29
2018-12-17T18:23:56.643Z,16.25
2018-12-17T18:26:32.732Z,16.20
2018-12-17T18:29:05.915Z,16.29
2018-12-17T18:31:39.038Z,16.30
2018-12-17T18:34:10.607Z,16.27
2018-12-17T18:36:52.461Z,16.25
2018-12-17T18:39:27.065Z,16.24
2018-12-17T18:42:00.514Z,16.25
2018-12-17T18:44:32.009Z,16.23
2018-12-17T18:47:04.497Z,16.22
2018-12-17T18:49:37.967Z,16.21
2018-12-17T18:52:10.327Z,16.14
2018-12-17T18:57:22.850Z,16.12
2018-12-17T18:59:54.148Z,16.11
2018-12-17T19:02:33.215Z,16.05
2018-12-17T19:05:10.552Z,16.05
2018-12-17T19:10:14.038Z,16.08
2018-12-17T19:12:46.773Z,16.10
2018-12-17T19:15:18.204Z,16.14
2018-12-17T19:18:04.507Z,16.15
2018-12-17T19:20:40.257Z,16.09
2018-12-17T19:23:18.275Z,16.12
2018-12-17T19:25:49.756Z,16.12
2018-12-17T19:28:22.226Z,16.12
2018-12-17T19:31:02.275Z,16.14
2018-12-17T19:33:39.025Z,16.05
2018-12-17T19:36:19.758Z,16.08
2018-12-17T19:38:56.140Z,16.07
2018-12-17T19:41:34.292Z,16.03
2018-12-17T19:44:12.072Z,15.98
2018-12-17T19:46:47.067Z,15.98
2018-12-17T19:49:19.743Z,15.95
2018-12-17T19:51:51.193Z,16.01
2018-12-17T19:54:27.896Z,15.89
2018-12-17T19:57:02.679Z,15.95
2018-12-17T19:59:34.273Z,15.92
2018-12-17T20:02:12.911Z,15.87
2018-12-17T20:04:56.480Z,15.87
2018-12-17T20:07:28.081Z,15.87
2018-12-17T20:10:00.649Z,15.81
2018-12-17T20:12:38.795Z,15.76
2018-12-17T20:15:12.357Z,15.70
2018-12-17T20:17:50.071Z,15.57
2018-12-17T20:20:25.276Z,15.67
2018-12-17T20:26:05.177Z,15.57
2018-12-17T20:28:43.633Z,15.58
2018-12-17T20:31:24.766Z,15.52
2018-12-17T20:34:08.819Z,15.48
2018-12-17T20:36:51.718Z,15.49
2018-12-17T20:39:28.154Z,15.48
2018-12-17T20:42:09.958Z,15.47
2018-12-17T20:44:43.695Z,15.40
2018-12-17T20:47:19.930Z,15.36
2018-12-17T20:50:02.145Z,15.37
2018-12-17T20:52:35.765Z,15.38
2018-12-17T20:55:12.700Z,15.41
2018-12-17T20:57:44.324Z,15.39
2018-12-17T21:00:27.838Z,15.37
2018-12-17T21:03:00.670Z,15.31
2018-12-17T21:05:38.534Z,15.28
2018-12-17T21:08:11.558Z,15.23
2018-12-17T21:10:45.061Z,15.13
2018-12-17T21:13:21.926Z,15.26
2018-12-17T21:15:53.387Z,15.16
2018-12-17T21:18:34.193Z,15.19
2018-12-17T21:21:05.665Z,15.17
2018-12-17T21:23:41.255Z,15.13
2018-12-17T21:26:13.752Z,15.05
2018-12-17T21:29:01.173Z,15.09
2018-12-17T21:31:42.620Z,15.04
2018-12-17T21:34:15.319Z,15.03
2018-12-17T21:36:47.968Z,14.96
2018-12-17T21:42:22.818Z,14.89
2018-12-17T21:47:37.452Z,14.99
2018-12-17T21:50:13.768Z,15.03
2018-12-17T21:52:56.826Z,14.96
2018-12-17T21:55:41.594Z,14.92
2018-12-17T21:58:14.231Z,14.88
2018-12-17T22:00:57.750Z,14.97
2018-12-17T22:06:30.608Z,14.92
2018-12-17T22:09:05.811Z,14.89
2018-12-17T22:14:39.413Z,14.78
2018-12-17T22:17:21.802Z,14.70
2018-12-17T22:20:05.547Z,14.72
2018-12-17T22:22:45.685Z,14.79
2018-12-17T22:25:20.946Z,14.78
2018-12-17T22:27:56.207Z,14.77
2018-12-17T22:30:29.256Z,14.71
2018-12-17T22:33:07.127Z,14.71
2018-12-17T22:35:41.862Z,14.65
2018-12-17T22:38:14.342Z,14.66
2018-12-17T22:40:52.996Z,14.70
2018-12-17T22:46:35.845Z,14.59
2018-12-17T22:49:10.635Z,14.60
2018-12-17T22:51:52.527Z,14.58
2018-12-17T22:54:26.069Z,14.63
2018-12-17T22:56:57.340Z,14.53
2018-12-17T22:59:47.741Z,14.49
2018-12-17T23:05:47.074Z,14.49
2018-12-17T23:08:33.337Z,14.49
2018-12-17T23:11:16.073Z,14.51
2018-12-17T23:14:02.128Z,14.53
2018-12-17T23:19:46.483Z,14.44
2018-12-17T23:25:40.001Z,14.53
2018-12-17T23:28:22.004Z,14.47
2018-12-17T23:30:54.495Z,14.38
2018-12-17T23:33:42.713Z,14.43
2018-12-17T23:36:25.705Z,14.51
2018-12-17T23:38:58.126Z,14.40
2018-12-17T23:41:29.646Z,14.40
2018-12-17T23:44:07.782Z,14.24
2018-12-17T23:47:01.406Z,14.29
2018-12-17T23:49:38.391Z,14.31
2018-12-17T23:52:17.766Z,14.40
2018-12-17T23:54:52.271Z,14.32
2018-12-17T23:57:32.870Z,14.23
